createdAt,value
2022-11-03T00:01:00.690Z,3.00
2022-11-03T00:05:36.851Z,3.00
2022-11-03T00:09:54.495Z,3.00
2022-11-03T00:14:13.013Z,3.10
2022-11-03T00:18:30.529Z,3.00
2022-11-03T00:22:47.885Z,3.10
2022-11-03T00:27:05.285Z,3.10
2022-11-03T00:31:23.426Z,3.00
2022-11-03T00:35:40.699Z,3.10
2022-11-03T00:39:57.972Z,3.20
2022-11-03T00:44:15.330Z,3.20
2022-11-03T00:48:34.184Z,3.20
2022-11-03T00:52:51.476Z,3.10
2022-11-03T00:57:08.958Z,3.10
2022-11-03T01:01:31.791Z,3.10
2022-11-03T01:06:07.901Z,3.20
2022-11-03T01:10:25.177Z,3.30
2022-11-03T01:14:48.258Z,3.30
2022-11-03T01:19:06.066Z,3.40
2022-11-03T01:23:26.433Z,3.40
2022-11-03T01:27:43.712Z,3.30
2022-11-03T01:32:00.989Z,3.40
2022-11-03T01:36:19.161Z,3.40
2022-11-03T01:40:36.412Z,3.50
2022-11-03T01:44:53.699Z,3.50
2022-11-03T01:49:40.110Z,3.50
2022-11-03T01:53:59.835Z,3.50
2022-11-03T01:58:18.963Z,3.40
2022-11-03T02:02:36.738Z,3.40
2022-11-03T02:07:03.840Z,3.40
2022-11-03T02:11:39.682Z,3.40
2022-11-03T02:15:59.398Z,3.40
2022-11-03T02:20:24.022Z,3.40
2022-11-03T02:25:06.313Z,3.40
2022-11-03T02:29:23.735Z,3.30
2022-11-03T02:33:54.035Z,3.20
2022-11-03T02:38:15.915Z,3.10
2022-11-03T02:42:35.442Z,3.10
2022-11-03T02:46:59.089Z,3.20
2022-11-03T02:51:16.639Z,3.10
2022-11-03T02:56:12.646Z,3.10
2022-11-03T03:00:33.091Z,3.00
2022-11-03T03:04:56.457Z,2.80
2022-11-03T03:09:21.141Z,2.80
2022-11-03T03:13:39.512Z,2.70
2022-11-03T03:18:05.499Z,2.60
2022-11-03T03:22:36.554Z,2.40
2022-11-03T03:26:59.040Z,2.40
2022-11-03T03:31:19.276Z,2.30
2022-11-03T03:35:40.486Z,2.20
2022-11-03T03:40:03.849Z,2.20
2022-11-03T03:44:22.046Z,2.20
2022-11-03T03:48:39.745Z,2.20
2022-11-03T03:53:06.537Z,2.20
2022-11-03T03:57:25.479Z,2.20
2022-11-03T04:01:43.190Z,2.20
2022-11-03T04:06:00.591Z,2.10
2022-11-03T04:10:20.657Z,2.10
2022-11-03T04:14:56.427Z,2.20
2022-11-03T04:19:32.256Z,2.20
2022-11-03T04:23:49.724Z,2.20
2022-11-03T04:28:14.955Z,2.20
2022-11-03T04:32:33.158Z,2.30
2022-11-03T04:36:50.703Z,2.40
2022-11-03T04:41:17.658Z,2.20
2022-11-03T04:45:35.193Z,2.10
2022-11-03T04:49:52.748Z,2.00
2022-11-03T04:54:19.780Z,2.00
2022-11-03T04:58:37.134Z,1.90
2022-11-03T05:02:56.319Z,1.90
2022-11-03T05:07:31.027Z,1.80
2022-11-03T05:11:48.420Z,1.70
2022-11-03T05:16:06.876Z,1.80
2022-11-03T05:20:50.504Z,1.70
2022-11-03T05:25:56.497Z,1.90
2022-11-03T05:30:14.941Z,2.00
2022-11-03T05:34:35.528Z,2.00
2022-11-03T05:38:56.147Z,2.10
2022-11-03T05:43:14.947Z,2.20
2022-11-03T05:47:39.902Z,2.20
2022-11-03T05:51:57.616Z,2.20
2022-11-03T05:56:22.048Z,2.10
2022-11-03T06:00:47.080Z,2.10
2022-11-03T06:05:21.411Z,2.20
2022-11-03T06:09:38.865Z,2.30
2022-11-03T06:13:58.943Z,2.20
2022-11-03T06:18:22.203Z,2.10
2022-11-03T06:22:39.540Z,2.00
2022-11-03T06:26:58.445Z,1.90
2022-11-03T06:31:27.458Z,1.90
2022-11-03T06:35:45.758Z,2.00
2022-11-03T06:40:26.204Z,2.20
2022-11-03T06:44:52.580Z,2.50
2022-11-03T06:49:29.667Z,2.60
2022-11-03T06:53:49.502Z,2.70
2022-11-03T06:58:19.893Z,2.90
2022-11-03T07:02:46.795Z,3.10
2022-11-03T07:07:04.215Z,3.50
2022-11-03T07:11:24.645Z,3.90
2022-11-03T07:15:44.178Z,4.20
2022-11-03T07:20:01.841Z,4.40
2022-11-03T07:24:27.025Z,4.60
2022-11-03T07:28:44.562Z,4.80
2022-11-03T07:33:24.250Z,5.00
2022-11-03T07:37:41.690Z,5.20
2022-11-03T07:41:59.037Z,5.40
2022-11-03T07:46:20.617Z,5.60
2022-11-03T07:50:39.162Z,5.80
2022-11-03T07:54:59.414Z,6.10
2022-11-03T07:59:27.183Z,6.50
2022-11-03T08:03:48.827Z,6.80
2022-11-03T08:08:06.486Z,7.20
2022-11-03T08:12:24.062Z,7.70
2022-11-03T08:16:41.360Z,8.50
2022-11-03T08:20:58.725Z,8.90
2022-11-03T08:25:16.140Z,9.20
2022-11-03T08:29:33.540Z,9.40
2022-11-03T08:33:50.940Z,9.90
2022-11-03T08:38:08.580Z,10.30
2022-11-03T08:42:26.214Z,10.80
2022-11-03T08:46:43.520Z,11.20
2022-11-03T08:51:00.905Z,11.50
2022-11-03T08:55:21.004Z,11.70
2022-11-03T08:59:38.735Z,11.60
2022-11-03T09:03:56.237Z,11.80
2022-11-03T09:12:51.020Z,12.00
2022-11-03T09:17:08.900Z,12.20
2022-11-03T09:21:26.194Z,12.50
2022-11-03T09:25:43.484Z,12.60
2022-11-03T09:30:13.290Z,12.90
2022-11-03T09:34:31.423Z,13.10
2022-11-03T09:38:48.834Z,13.40
2022-11-03T09:43:06.520Z,13.50
2022-11-03T09:47:33.370Z,13.70
2022-11-03T09:51:51.092Z,13.70
2022-11-03T09:56:10.504Z,14.10
2022-11-03T10:00:30.102Z,14.20
2022-11-03T10:04:47.659Z,14.30
2022-11-03T10:09:08.118Z,14.40
2022-11-03T10:13:50.414Z,14.50
2022-11-03T10:18:15.597Z,14.80
2022-11-03T10:22:35.913Z,14.90
2022-11-03T10:26:55.945Z,15.20
2022-11-03T10:31:21.222Z,15.20
2022-11-03T10:35:40.901Z,15.30
2022-11-03T10:39:58.772Z,15.50
2022-11-03T10:44:16.069Z,15.80
2022-11-03T10:48:33.445Z,15.30
2022-11-03T10:52:52.966Z,15.70
2022-11-03T10:57:10.459Z,15.70
2022-11-03T11:01:28.082Z,15.60
2022-11-03T11:05:47.020Z,15.40
2022-11-03T11:10:08.787Z,15.40
2022-11-03T11:14:25.959Z,15.60
2022-11-03T11:18:43.188Z,15.40
2022-11-03T11:23:31.551Z,15.50
2022-11-03T11:27:54.173Z,15.50
2022-11-03T11:32:42.315Z,15.70
2022-11-03T11:36:59.630Z,15.60
2022-11-03T11:41:16.966Z,15.50
2022-11-03T11:46:11.921Z,15.90
2022-11-03T11:50:31.375Z,16.70
2022-11-03T11:54:48.852Z,17.50
2022-11-03T11:59:06.121Z,17.50
2022-11-03T12:03:30.715Z,18.00
2022-11-03T12:07:48.572Z,18.20
2022-11-03T12:12:08.834Z,18.30
2022-11-03T12:16:34.219Z,17.50
2022-11-03T12:20:51.625Z,17.60
2022-11-03T12:25:40.067Z,18.00
2022-11-03T12:30:00.024Z,17.70
2022-11-03T12:34:17.913Z,16.80
2022-11-03T12:38:35.597Z,16.30
2022-11-03T12:42:52.921Z,16.10
2022-11-03T12:47:10.252Z,16.00
2022-11-03T12:51:27.972Z,16.00
2022-11-03T12:55:45.391Z,16.00
2022-11-03T13:00:06.458Z,16.00
2022-11-03T13:04:27.518Z,16.00
2022-11-03T13:08:46.671Z,16.10
2022-11-03T13:13:07.081Z,16.00
2022-11-03T13:17:31.751Z,16.10
2022-11-03T13:21:49.721Z,16.20
2022-11-03T13:26:07.168Z,16.40
2022-11-03T13:30:26.899Z,16.50
2022-11-03T13:34:44.192Z,16.70
2022-11-03T13:39:01.537Z,16.60
2022-11-03T13:43:19.017Z,16.60
2022-11-03T13:48:22.105Z,16.50
2022-11-03T13:52:14.173Z,16.40
2022-11-03T13:56:32.232Z,16.40
2022-11-03T14:00:49.912Z,16.40
2022-11-03T14:05:11.236Z,16.30
2022-11-03T14:09:28.886Z,16.20
2022-11-03T14:13:46.485Z,15.80
2022-11-03T14:18:04.036Z,15.60
2022-11-03T14:22:22.238Z,15.20
2022-11-03T14:26:42.758Z,14.90
2022-11-03T14:31:01.370Z,14.70
2022-11-03T14:35:18.910Z,14.40
2022-11-03T14:39:36.976Z,14.20
2022-11-03T14:43:54.401Z,14.00
2022-11-03T14:48:11.866Z,13.60
2022-11-03T14:52:29.183Z,13.30
2022-11-03T14:56:46.499Z,13.00
2022-11-03T15:01:04.185Z,12.70
2022-11-03T15:05:40.182Z,12.50
2022-11-03T15:09:58.391Z,12.30
2022-11-03T15:14:15.717Z,12.00
2022-11-03T15:18:33.310Z,11.80
2022-11-03T15:27:28.779Z,11.70
2022-11-03T15:31:48.289Z,11.80
2022-11-03T15:36:09.118Z,12.00
2022-11-03T15:40:27.055Z,12.10
2022-11-03T15:44:44.452Z,12.20
2022-11-03T15:49:01.991Z,12.20
2022-11-03T15:53:19.496Z,12.10
2022-11-03T15:57:37.120Z,12.00
2022-11-03T16:02:03.510Z,11.90
2022-11-03T16:11:09.113Z,11.30
2022-11-03T16:15:26.666Z,11.10
2022-11-03T16:19:44.199Z,10.90
2022-11-03T16:24:01.476Z,10.80
2022-11-03T16:28:18.941Z,10.80
2022-11-03T16:32:36.306Z,10.90
2022-11-03T16:36:53.714Z,10.80
2022-11-03T16:41:11.105Z,10.90
2022-11-03T16:45:33.526Z,11.00
2022-11-03T16:49:53.725Z,11.00
2022-11-03T16:54:11.174Z,11.10
2022-11-03T16:58:28.475Z,11.30
2022-11-03T17:02:47.257Z,11.30
2022-11-03T17:07:05.258Z,11.30
2022-11-03T17:11:37.826Z,11.10
2022-11-03T17:15:55.153Z,11.00
2022-11-03T17:20:12.984Z,11.10
2022-11-03T17:24:30.382Z,11.10
2022-11-03T17:28:47.914Z,11.20
2022-11-03T17:33:12.568Z,11.30
2022-11-03T17:37:29.992Z,11.50
2022-11-03T17:41:47.336Z,11.50
2022-11-03T17:46:05.935Z,11.60
2022-11-03T17:50:25.314Z,11.60
2022-11-03T17:54:42.939Z,11.60
2022-11-03T17:59:00.597Z,11.50
2022-11-03T18:03:17.992Z,11.40
2022-11-03T18:07:35.454Z,11.40
2022-11-03T18:12:11.948Z,11.30
2022-11-03T18:16:31.222Z,11.20
2022-11-03T18:20:53.468Z,11.00
2022-11-03T18:25:21.984Z,10.80
2022-11-03T18:29:39.430Z,10.70
2022-11-03T18:33:57.699Z,10.40
2022-11-03T18:38:15.873Z,10.10
2022-11-03T18:42:33.448Z,9.90
2022-11-03T18:46:52.272Z,9.70
2022-11-03T18:51:09.626Z,9.60
2022-11-03T18:55:26.952Z,9.60
2022-11-03T18:59:44.763Z,9.60
2022-11-03T19:04:02.043Z,9.50
2022-11-03T19:08:23.003Z,9.30
2022-11-03T19:12:44.428Z,9.30
2022-11-03T19:17:22.358Z,9.50
2022-11-03T19:21:40.585Z,9.70
2022-11-03T19:25:59.753Z,10.00
2022-11-03T19:30:19.103Z,10.50
2022-11-03T19:34:36.717Z,10.90
2022-11-03T19:38:54.917Z,10.90
2022-11-03T19:43:12.286Z,11.00
2022-11-03T19:47:35.053Z,11.10
2022-11-03T19:51:52.371Z,11.10
2022-11-03T19:56:10.273Z,11.00
2022-11-03T20:00:27.808Z,11.00
2022-11-03T20:04:47.318Z,11.00
2022-11-03T20:09:07.549Z,10.90
2022-11-03T20:13:28.857Z,10.80
2022-11-03T20:17:47.724Z,10.90
2022-11-03T20:22:05.688Z,10.90
2022-11-03T20:26:24.494Z,10.80
2022-11-03T20:30:42.147Z,10.80
2022-11-03T20:34:59.405Z,10.80
2022-11-03T20:39:18.053Z,10.80
2022-11-03T20:43:42.151Z,10.80
2022-11-03T20:47:59.565Z,10.80
2022-11-03T20:52:16.965Z,10.70
2022-11-03T20:56:34.250Z,10.90
2022-11-03T21:00:51.888Z,10.80
2022-11-03T21:05:16.977Z,11.00
2022-11-03T21:09:34.403Z,11.30
2022-11-03T21:13:53.392Z,11.50
2022-11-03T21:18:34.468Z,11.40
2022-11-03T21:22:53.253Z,11.20
2022-11-03T21:27:13.365Z,11.20
2022-11-03T21:31:33.921Z,11.10
2022-11-03T21:35:52.233Z,11.00
2022-11-03T21:40:10.482Z,10.80
2022-11-03T21:44:27.864Z,10.70
2022-11-03T21:49:04.004Z,10.60
2022-11-03T21:53:21.497Z,10.60
2022-11-03T21:57:38.810Z,10.50
2022-11-03T22:01:56.257Z,10.30
2022-11-03T22:06:13.941Z,10.30
2022-11-03T22:10:31.171Z,10.10
2022-11-03T22:15:06.823Z,10.00
2022-11-03T22:19:42.803Z,9.90
2022-11-03T22:24:18.778Z,9.70
2022-11-03T22:28:36.048Z,9.80
2022-11-03T22:32:55.363Z,9.70
2022-11-03T22:37:12.604Z,9.70
2022-11-03T22:41:48.447Z,9.60
2022-11-03T22:46:05.884Z,9.50
2022-11-03T22:50:23.245Z,9.50
2022-11-03T22:54:40.522Z,9.30
2022-11-03T22:58:57.902Z,9.10
2022-11-03T23:03:15.214Z,8.70
2022-11-03T23:07:39.925Z,8.60
2022-11-03T23:11:58.484Z,8.40
2022-11-03T23:16:18.843Z,8.30
2022-11-03T23:20:56.243Z,8.20
2022-11-03T23:25:13.597Z,8.10
2022-11-03T23:29:31.100Z,7.90
2022-11-03T23:33:48.801Z,8.00
2022-11-03T23:38:06.463Z,8.00
2022-11-03T23:42:23.858Z,8.10
2022-11-03T23:47:00.813Z,7.90
2022-11-03T23:51:23.918Z,8.00
2022-11-03T23:55:59.877Z,8.00
